createdAt,value
2024-01-30T00:02:16.251Z,29.43
2024-01-30T00:07:19.675Z,29.30
2024-01-30T00:12:24.288Z,27.60
2024-01-30T00:17:27.454Z,23.57
2024-01-30T00:22:31.501Z,22.73
2024-01-30T00:27:36.101Z,21.37
2024-01-30T00:32:39.470Z,19.60
2024-01-30T00:37:42.823Z,19.80
2024-01-30T00:42:47.341Z,17.67
2024-01-30T00:47:50.705Z,18.30
2024-01-30T00:52:53.937Z,17.23
2024-01-30T00:57:58.586Z,16.20
2024-01-30T01:03:01.733Z,15.90
2024-01-30T01:08:05.280Z,15.20
2024-01-30T01:13:09.822Z,15.27
2024-01-30T01:18:12.911Z,14.57
2024-01-30T01:23:16.241Z,15.63
2024-01-30T01:28:20.749Z,14.30
2024-01-30T01:33:23.947Z,15.50
2024-01-30T01:38:27.269Z,14.90
2024-01-30T01:43:31.954Z,15.43
2024-01-30T01:48:35.760Z,16.30
2024-01-30T01:53:39.292Z,15.30
2024-01-30T01:58:44.116Z,15.83
2024-01-30T02:03:47.944Z,16.20
2024-01-30T02:08:51.125Z,16.87
2024-01-30T02:13:55.607Z,15.63
2024-01-30T02:18:58.822Z,15.23
2024-01-30T02:24:04.621Z,15.90
2024-01-30T02:29:07.692Z,16.40
2024-01-30T02:34:10.925Z,16.73
2024-01-30T02:39:15.475Z,16.70
2024-01-30T02:44:20.299Z,17.23
2024-01-30T02:49:23.634Z,16.50
2024-01-30T02:54:28.275Z,16.77
2024-01-30T02:59:34.281Z,16.40
2024-01-30T03:04:37.462Z,15.37
2024-01-30T03:09:43.433Z,16.37
2024-01-30T03:14:46.545Z,15.60
2024-01-30T03:19:49.776Z,16.87
2024-01-30T03:24:54.322Z,18.93
2024-01-30T03:29:57.544Z,20.23
2024-01-30T03:35:00.893Z,20.03
2024-01-30T03:40:06.511Z,19.57
2024-01-30T03:45:10.592Z,19.17
2024-01-30T03:50:13.856Z,20.07
2024-01-30T03:55:18.433Z,19.27
2024-01-30T04:00:21.641Z,19.17
2024-01-30T04:05:24.729Z,20.30
2024-01-30T04:10:29.653Z,19.63
2024-01-30T04:15:34.086Z,18.50
2024-01-30T04:20:37.214Z,19.37
2024-01-30T04:25:41.643Z,19.20
2024-01-30T04:30:44.706Z,20.70
2024-01-30T04:35:47.777Z,19.87
2024-01-30T04:40:52.245Z,19.63
2024-01-30T04:45:55.332Z,20.77
2024-01-30T04:50:58.454Z,19.10
2024-01-30T04:56:02.861Z,21.47
2024-01-30T05:01:06.225Z,21.53
2024-01-30T05:06:09.631Z,20.73
2024-01-30T05:11:14.183Z,22.40
2024-01-30T05:16:17.302Z,22.60
2024-01-30T05:21:20.436Z,23.40
2024-01-30T05:26:24.875Z,24.07
2024-01-30T05:31:28.369Z,23.03
2024-01-30T05:36:31.696Z,23.93
2024-01-30T05:41:36.140Z,23.63
2024-01-30T05:46:39.374Z,23.03
2024-01-30T05:51:42.603Z,23.10
2024-01-30T05:56:47.180Z,25.67
2024-01-30T06:01:51.041Z,24.80
2024-01-30T06:06:54.584Z,26.03
2024-01-30T06:11:59.072Z,27.27
2024-01-30T06:17:02.163Z,27.37
2024-01-30T06:22:05.766Z,29.70
2024-01-30T06:27:10.616Z,28.03
2024-01-30T06:32:13.734Z,27.17
2024-01-30T06:37:16.847Z,26.70
2024-01-30T06:42:21.567Z,28.73
2024-01-30T06:47:24.686Z,28.00
2024-01-30T06:52:28.119Z,27.03
2024-01-30T06:57:32.811Z,27.03
2024-01-30T07:02:35.984Z,27.90
2024-01-30T07:07:39.138Z,27.53
2024-01-30T07:12:43.653Z,26.63
2024-01-30T07:17:46.985Z,24.80
2024-01-30T07:22:50.164Z,27.60
2024-01-30T07:27:54.608Z,28.70
2024-01-30T07:32:57.761Z,27.87
2024-01-30T07:38:00.930Z,29.03
2024-01-30T07:43:05.845Z,28.13
2024-01-30T07:48:09.379Z,29.10
2024-01-30T07:53:12.713Z,28.90
2024-01-30T07:58:17.179Z,28.63
2024-01-30T08:03:20.296Z,27.87
2024-01-30T08:08:23.428Z,28.73
2024-01-30T08:13:27.894Z,29.27
2024-01-30T08:18:31.049Z,29.23
2024-01-30T08:23:34.169Z,30.37
2024-01-30T08:28:38.745Z,30.90
2024-01-30T08:33:43.546Z,29.30
2024-01-30T08:38:47.364Z,29.33
2024-01-30T08:43:51.794Z,28.60
2024-01-30T08:48:55.090Z,29.47
2024-01-30T08:53:58.498Z,29.03
2024-01-30T08:59:02.960Z,29.23
2024-01-30T09:04:06.431Z,28.17
2024-01-30T09:09:10.408Z,27.40
2024-01-30T09:14:15.208Z,28.03
2024-01-30T09:19:18.454Z,26.90
2024-01-30T09:24:21.627Z,28.07
2024-01-30T09:29:26.099Z,28.57
2024-01-30T09:34:29.538Z,28.77
2024-01-30T09:39:32.774Z,28.47
2024-01-30T09:44:38.143Z,29.20
2024-01-30T09:49:44.368Z,28.37
2024-01-30T09:54:47.782Z,29.40
2024-01-30T09:59:55.626Z,30.53
2024-01-30T10:04:58.858Z,31.60
2024-01-30T10:10:02.795Z,31.00
2024-01-30T10:15:09.802Z,31.83
2024-01-30T10:20:13.956Z,31.13
2024-01-30T10:25:18.055Z,31.00
2024-01-30T10:30:22.772Z,30.33
2024-01-30T10:35:26.165Z,30.90
2024-01-30T10:40:30.733Z,31.50
2024-01-30T10:45:37.877Z,30.00
2024-01-30T10:50:50.645Z,30.40
2024-01-30T10:55:57.836Z,29.57
2024-01-30T11:01:03.362Z,29.50
2024-01-30T11:06:07.115Z,28.67
2024-01-30T11:11:13.450Z,29.83
2024-01-30T11:16:19.482Z,28.73
2024-01-30T11:21:22.572Z,30.30
2024-01-30T11:26:29.790Z,28.13
2024-01-30T11:31:34.581Z,29.63
2024-01-30T11:36:39.161Z,29.13
2024-01-30T11:41:43.341Z,29.77
2024-01-30T11:46:48.014Z,29.03
2024-01-30T11:51:51.196Z,29.30
2024-01-30T11:56:54.395Z,27.27
2024-01-30T12:01:59.191Z,26.87
2024-01-30T12:07:04.712Z,27.07
2024-01-30T12:12:13.051Z,27.13
2024-01-30T12:17:28.541Z,29.27
2024-01-30T12:22:31.905Z,24.63
2024-01-30T12:27:35.148Z,25.73
2024-01-30T12:32:42.853Z,25.23
2024-01-30T12:37:47.513Z,24.27
2024-01-30T12:42:51.125Z,25.93
2024-01-30T12:47:56.294Z,25.80
2024-01-30T12:53:00.091Z,25.23
2024-01-30T12:58:04.107Z,25.47
2024-01-30T13:03:09.530Z,26.17
2024-01-30T13:08:12.649Z,25.80
2024-01-30T13:13:19.907Z,26.73
2024-01-30T13:18:25.337Z,25.83
2024-01-30T13:23:28.528Z,25.83
2024-01-30T13:28:31.820Z,24.73
2024-01-30T13:33:36.364Z,25.13
2024-01-30T13:38:40.249Z,24.20
2024-01-30T13:43:43.399Z,24.00
2024-01-30T13:48:48.368Z,23.50
2024-01-30T13:53:51.874Z,23.63
2024-01-30T13:58:56.778Z,22.73
2024-01-30T14:04:01.348Z,22.77
2024-01-30T14:09:08.476Z,22.77
2024-01-30T14:14:12.714Z,23.27
2024-01-30T14:19:17.161Z,22.57
2024-01-30T14:24:20.257Z,23.27
2024-01-30T14:29:23.383Z,22.60
2024-01-30T14:34:28.323Z,22.07
2024-01-30T14:39:31.443Z,21.97
2024-01-30T14:44:34.640Z,22.10
2024-01-30T14:49:39.156Z,23.00
2024-01-30T14:54:42.396Z,22.27
2024-01-30T14:59:45.616Z,22.23
2024-01-30T15:04:50.232Z,22.93
2024-01-30T15:09:53.402Z,24.00
2024-01-30T15:14:56.612Z,22.10
2024-01-30T15:20:01.521Z,22.20
2024-01-30T15:25:05.460Z,22.40
2024-01-30T15:30:09.751Z,22.87
2024-01-30T15:35:14.626Z,22.70
2024-01-30T15:40:17.859Z,22.37
2024-01-30T15:45:21.381Z,23.17
2024-01-30T15:50:25.909Z,21.03
2024-01-30T15:55:29.141Z,23.27
2024-01-30T16:00:32.332Z,22.93
2024-01-30T16:05:36.947Z,21.83
2024-01-30T16:10:40.091Z,22.53
2024-01-30T16:15:44.737Z,22.97
2024-01-30T16:20:49.230Z,23.63
2024-01-30T16:25:52.300Z,23.87
2024-01-30T16:30:55.450Z,24.40
2024-01-30T16:35:59.973Z,24.20
2024-01-30T16:41:03.086Z,23.17
2024-01-30T16:46:06.391Z,23.83
2024-01-30T16:51:10.865Z,23.37
2024-01-30T16:56:14.174Z,22.97
2024-01-30T17:01:17.678Z,24.47
2024-01-30T17:06:22.354Z,24.70
2024-01-30T17:11:25.570Z,25.13
2024-01-30T17:16:28.828Z,25.10
2024-01-30T17:21:35.290Z,25.03
2024-01-30T17:26:41.223Z,26.13
2024-01-30T17:31:49.316Z,25.90
2024-01-30T17:36:53.838Z,25.83
2024-01-30T17:41:56.970Z,25.53
2024-01-30T17:47:00.105Z,25.60
2024-01-30T17:52:05.508Z,26.40
2024-01-30T17:57:08.619Z,26.87
2024-01-30T18:02:13.382Z,27.83
2024-01-30T18:07:18.044Z,26.87
2024-01-30T18:12:21.142Z,27.00
2024-01-30T18:17:24.266Z,28.50
2024-01-30T18:22:28.899Z,27.47
2024-01-30T18:27:32.095Z,25.83
2024-01-30T18:32:35.248Z,28.47
2024-01-30T18:37:39.887Z,26.47
2024-01-30T18:42:43.080Z,26.47
2024-01-30T18:47:46.227Z,25.73
2024-01-30T18:52:52.812Z,26.63
2024-01-30T18:57:56.291Z,28.77
2024-01-30T19:02:59.509Z,25.73
2024-01-30T19:08:04.026Z,27.57
2024-01-30T19:13:07.419Z,27.87
2024-01-30T19:18:13.367Z,27.93
2024-01-30T19:23:18.464Z,28.80
2024-01-30T19:28:21.799Z,28.40
2024-01-30T19:33:25.013Z,30.00
2024-01-30T19:38:29.445Z,29.93
2024-01-30T19:43:32.607Z,29.47
2024-01-30T19:48:35.861Z,29.93
2024-01-30T19:53:40.413Z,29.47
2024-01-30T19:58:43.570Z,28.97
2024-01-30T20:03:46.719Z,29.77
2024-01-30T20:08:51.141Z,30.13
2024-01-30T20:13:54.249Z,29.37
2024-01-30T20:18:57.613Z,29.47
2024-01-30T20:24:02.938Z,27.60
2024-01-30T20:29:06.038Z,28.43
2024-01-30T20:34:09.346Z,27.57
2024-01-30T20:39:14.558Z,25.67
2024-01-30T20:44:19.236Z,27.40
2024-01-30T20:49:22.555Z,28.33
2024-01-30T20:54:27.067Z,31.60
2024-01-30T20:59:30.159Z,30.77
2024-01-30T21:04:33.652Z,30.10
2024-01-30T21:09:38.168Z,29.63
2024-01-30T21:14:41.267Z,28.77
2024-01-30T21:19:44.651Z,27.20
2024-01-30T21:24:49.170Z,28.43
2024-01-30T21:29:52.247Z,29.10
2024-01-30T21:34:55.372Z,27.97
2024-01-30T21:39:59.905Z,27.57
2024-01-30T21:45:03.079Z,26.87
2024-01-30T21:50:07.402Z,29.90
2024-01-30T21:55:11.901Z,27.67
2024-01-30T22:00:16.924Z,30.83
2024-01-30T22:05:20.609Z,29.93
2024-01-30T22:10:25.104Z,31.43
2024-01-30T22:15:30.092Z,30.17
2024-01-30T22:20:33.721Z,31.00
2024-01-30T22:25:38.269Z,28.57
2024-01-30T22:30:41.380Z,26.50
2024-01-30T22:35:44.508Z,25.20
2024-01-30T22:40:49.116Z,22.80
2024-01-30T22:45:52.269Z,20.87
2024-01-30T22:50:55.398Z,18.03
2024-01-30T22:55:59.844Z,16.57
2024-01-30T23:01:03.002Z,12.40
2024-01-30T23:06:06.591Z,11.47
2024-01-30T23:11:14.132Z,10.43
2024-01-30T23:16:17.310Z,9.63
2024-01-30T23:21:20.796Z,8.97
2024-01-30T23:26:25.378Z,9.20
2024-01-30T23:31:28.868Z,9.40
2024-01-30T23:36:33.119Z,8.60
2024-01-30T23:41:37.865Z,9.03
2024-01-30T23:46:41.309Z,9.53
2024-01-30T23:51:44.431Z,9.47
2024-01-30T23:56:48.911Z,9.53
